首页
METAR-TAF:

METAR-TAF

机场 :

Dease Lake, 不列颠哥伦比亚, 加拿大

纬度: 58-25-20N, 经度: 130-01-53W, 海拔: 803米

当前天气观测

该预报发布于36分钟前的01:00 UTC
风速8节,风向西转西南,在西南西转西北之间变化
温度 18°C
湿度 42%
气压 1014 hPa
能見度: 14.5公里
多云层高于10000英尺
多云层高于12000英尺
多云层高于14000英尺

METAR: CYDL 170100Z AUTO 24008KT 220V290 9SM BKN100 BKN120 BKN140 18/05 A2993 RMK LTNG DIST W SLP139 DENSITY ALT 3600FT

时间: 18:36 (01:36 UTC)

预报

该预报发布于7小时和56分钟前的17:40 UTC
预报有效从16日的 18点(UTC)到 16日的 23点(UTC)
风速8节,风向西转西南
能見度: 10公里
散云层高于4000英尺
多云层高于8000英尺
短暂存在
从 16日的 18点(UTC)到 16日的 23点(UTC)
能見度: 8.0公里
散云层高于2000英尺
多云层高于4000英尺
阴天层高于8000英尺
小阵雨, 轻雾
几率 30%
从 16日的 18点(UTC)到 16日的 23点(UTC)
风速15节,风向多变,有时为25节阵风
能見度: 3.2公里
阴天层高于2000英尺, 积雨云.
雷暴, 雨

TAF: CYDL 161740Z 1618/1623 24008KT P6SM SCT040 BKN080 TEMPO 1618/1623 5SM -SHRA BR SCT020 BKN040 OVC080 PROB30 1618/1623 VRB15G25KT 2SM TSRA OVC020CB RMK FCST BASED ON AUTO OBS. NXT FCST BY 171200Z

超过4000个机场的气象观测和天气预报(METAR&TAF报告)。

可查询的气象台以黄色和红色小点在地图上表示。

将鼠标移到小点上方,可查看气象台名称。

然后点击查看天气观测和预报。

如需切换地图:点击带黑十字的绿色按钮放大地图;点击带横线的绿色按钮缩小地图;或者点击绿色箭头查看邻近地区的地图。


METAR-TAF: